Time;durP1;ratioP1;P1;durP2;ratioP2;P2;SDS_P1;SDS_P2;PMS_P1;PMS_P2;Temp;Humidity;BMP_temperature;BMP_pressure;BME280_temperature;BME280_humidity;BME280_pressure;Samples;Min_cycle;Max_cycle;Signal;HPM_P1;HPM_P2
2022/11/16 00:01:09;;;;;;;;;;;;;;;11.38;100.00;99715.13;6039527;23;19918;-49
2022/11/16 00:03:37;;;;;;;;;;;;;;;11.39;100.00;99716.72;6015203;23;19981;-49
2022/11/16 00:06:05;;;;;;;;;;;;;;;11.39;100.00;99714.81;6040028;23;19925;-49
2022/11/16 00:08:34;;;;;;;;;;;;;;;11.39;100.00;99706.63;6015082;23;19925;-47
2022/11/16 00:11:03;;;;;;;;;;;;;;;11.39;100.00;99712.06;6014872;23;19918;-52
2022/11/16 00:13:31;;;;;;;;;;;;;;;11.39;100.00;99712.06;6039992;23;20382;-51
2022/11/16 00:15:58;;;;;;;;;;;;;;;11.39;100.00;99714.81;6040099;23;19918;-48
2022/11/16 00:18:26;;;;;;;;;;;;;;;11.40;100.00;99707.41;6015074;23;20232;-48
2022/11/16 00:20:54;;;;;;;;;;;;;;;11.40;100.00;99719.16;6014785;23;19922;-50
2022/11/16 00:23:22;;;;;;;;;;;;;;;11.39;100.00;99712.06;6039613;23;19918;-49
2022/11/16 00:25:49;;;;;;;;;;;;;;;11.40;100.00;99713.72;6039912;23;19918;-50
2022/11/16 00:28:17;;;;;;;;;;;;;;;11.40;100.00;99715.59;6039475;23;19918;-49
2022/11/16 00:30:46;;;;;;;;;;;;;;;11.39;100.00;99722.97;6014425;23;19922;-48
2022/11/16 00:33:15;;;;;;;;;;;;;;;11.40;100.00;99723.78;6039737;23;19918;-50
2022/11/16 00:35:42;;;;;;;;;;;;;;;11.39;100.00;99731.16;6014815;23;19924;-50
2022/11/16 00:38:10;;;;;;;;;;;;;;;11.39;100.00;99728.44;6014570;23;20335;-49
2022/11/16 00:40:38;;;;;;;;;;;;;;;11.39;100.00;99722.19;6039482;23;19918;-50
2022/11/16 00:43:06;;;;;;;;;;;;;;;11.38;100.00;99718.66;6014521;23;20335;-50
2022/11/16 00:45:33;;;;;;;;;;;;;;;11.40;100.00;99723.78;6039990;23;19918;-48
2022/11/16 00:48:01;;;;;;;;;;;;;;;11.38;100.00;99718.66;6039888;23;19918;-50
2022/11/16 00:50:29;;;;;;;;;;;;;;;11.38;100.00;99732.28;5991410;23;19925;-49
2022/11/16 00:52:57;;;;;;;;;;;;;;;11.37;100.00;99730.66;6014081;23;19946;-49
2022/11/16 00:55:27;;;;;;;;;;;;;;;11.39;100.00;99735.81;6014056;23;19918;-49
2022/11/16 00:57:55;;;;;;;;;;;;;;;11.40;100.00;99735.53;5991554;23;19918;-51
2022/11/16 01:00:24;;;;;;;;;;;;;;;11.40;100.00;99727.34;6014518;23;19918;-49
2022/11/16 01:02:53;;;;;;;;;;;;;;;11.39;100.00;99727.63;6013814;23;19918;-49
2022/11/16 01:05:21;;;;;;;;;;;;;;;11.39;100.00;99722.19;6014588;23;19973;-52
2022/11/16 01:07:49;;;;;;;;;;;;;;;11.36;100.00;99701.78;5991083;23;19940;-50
2022/11/16 01:10:17;;;;;;;;;;;;;;;11.38;100.00;99704.22;6039898;23;19944;-49
2022/11/16 01:12:46;;;;;;;;;;;;;;;11.37;100.00;99686.22;6013824;23;19922;-49
2022/11/16 01:15:14;;;;;;;;;;;;;;;11.37;100.00;99697.13;6014530;23;19969;-50
2022/11/16 01:17:41;;;;;;;;;;;;;;;11.36;100.00;99688.13;6014580;23;19922;-52
2022/11/16 01:20:10;;;;;;;;;;;;;;;11.37;100.00;99695.19;6014622;23;19924;-49
2022/11/16 01:22:39;;;;;;;;;;;;;;;11.38;100.00;99688.66;6039401;23;19917;-50
2022/11/16 01:25:07;;;;;;;;;;;;;;;11.39;100.00;99684.81;5990593;23;19922;-49
2022/11/16 01:27:35;;;;;;;;;;;;;;;11.39;100.00;99695.72;6014353;23;19918;-52
2022/11/16 01:30:05;;;;;;;;;;;;;;;11.40;100.00;99702.78;6014588;23;19922;-51
2022/11/16 01:32:35;;;;;;;;;;;;;;;11.40;100.00;99708.25;6014704;23;19950;-49
2022/11/16 01:35:05;;;;;;;;;;;;;;;11.39;100.00;99695.72;5991023;23;19918;-49
2022/11/16 01:37:34;;;;;;;;;;;;;;;11.38;100.00;99688.66;6039848;23;19917;-49
2022/11/16 01:40:02;;;;;;;;;;;;;;;11.38;100.00;99682.41;6015088;23;20340;-48
2022/11/16 01:42:32;;;;;;;;;;;;;;;11.38;100.00;99685.13;6016485;23;19949;-51
2022/11/16 01:45:16;;;;;;;;;;;;;;;11.38;100.00;99675.00;6015616;23;20362;-49
2022/11/16 01:47:44;;;;;;;;;;;;;;;11.39;100.00;99684.00;6016267;23;19996;-50
2022/11/16 01:50:16;;;;;;;;;;;;;;;11.38;100.00;99675.00;6016245;23;19926;-51
2022/11/16 01:52:53;;;;;;;;;;;;;;;11.37;100.00;99675.31;5993259;23;20308;-50
2022/11/16 01:55:22;;;;;;;;;;;;;;;11.37;100.00;99669.84;5992310;23;20331;-51
2022/11/16 01:58:10;;;;;;;;;;;;;;;11.38;100.00;99669.56;5996644;23;20329;-51
2022/11/16 02:00:39;;;;;;;;;;;;;;;11.38;100.00;99668.75;5994150;23;20321;-53
2022/11/16 02:03:25;;;;;;;;;;;;;;;11.39;100.00;99668.44;6017881;23;19969;-53
2022/11/16 02:05:54;;;;;;;;;;;;;;;11.40;100.00;99670.06;6015933;23;19922;-48
2022/11/16 02:11:35;;;;;;;;;;;;;;;11.39;100.00;99657.53;6015864;23;19945;-49
2022/11/16 02:14:16;;;;;;;;;;;;;;;11.39;100.00;99657.53;5992646;23;19917;-48
2022/11/16 02:16:59;;;;;;;;;;;;;;;11.39;100.00;99657.53;6015764;23;19927;-47
2022/11/16 02:19:39;;;;;;;;;;;;;;;11.40;100.00;99658.31;5993943;23;19966;-49
2022/11/16 02:22:27;;;;;;;;;;;;;;;11.39;100.00;99654.78;6015543;23;19928;-46
2022/11/16 02:25:00;;;;;;;;;;;;;;;11.41;100.00;99649.06;6016934;23;20277;-50
2022/11/16 02:27:40;;;;;;;;;;;;;;;11.41;100.00;99644.41;5992252;23;20005;-51
2022/11/16 02:30:07;;;;;;;;;;;;;;;11.42;100.00;99648.72;6040634;23;19973;-48
2022/11/16 02:33:13;;;;;;;;;;;;;;;11.42;100.00;99646.00;5994161;23;19917;-49
2022/11/16 02:35:47;;;;;;;;;;;;;;;11.44;100.00;99648.44;5941198;23;20000;-53
2022/11/16 02:38:19;;;;;;;;;;;;;;;11.43;100.00;99652.28;6016116;23;19918;-49
2022/11/16 02:40:53;;;;;;;;;;;;;;;11.44;100.00;99649.25;5993595;23;19953;-51
2022/11/16 02:43:28;;;;;;;;;;;;;;;11.44;100.00;99646.50;6017524;23;20388;-50
2022/11/16 02:45:58;;;;;;;;;;;;;;;11.44;100.00;99648.44;6028944;23;20299;-50
2022/11/16 02:48:32;;;;;;;;;;;;;;;11.44;100.00;99651.97;6003693;23;19969;-50
2022/11/16 02:51:00;;;;;;;;;;;;;;;11.46;100.00;99646.22;5996344;23;19918;-49
2022/11/16 02:53:30;;;;;;;;;;;;;;;11.46;100.00;99647.03;6001937;23;19918;-53
2022/11/16 02:55:58;;;;;;;;;;;;;;;11.49;100.00;99656.53;6022016;23;20324;-54
2022/11/16 02:58:26;;;;;;;;;;;;;;;11.47;100.00;99654.13;5994523;23;19929;-53
2022/11/16 03:01:01;;;;;;;;;;;;;;;11.47;100.00;99659.56;6017360;23;19942;-49
2022/11/16 03:03:40;;;;;;;;;;;;;;;11.49;100.00;99659.25;6019788;23;19941;-53
2022/11/16 03:06:18;;;;;;;;;;;;;;;11.49;100.00;99651.88;6023566;23;19942;-50
2022/11/16 03:08:48;;;;;;;;;;;;;;;11.49;100.00;99657.31;5998530;23;20267;-49
2022/11/16 03:14:04;;;;;;;;;;;;;;;11.48;100.00;99661.19;6006088;23;19918;-50
2022/11/16 03:16:33;;;;;;;;;;;;;;;11.47;100.00;99656.00;5996385;23;19917;-49
2022/11/16 03:19:02;;;;;;;;;;;;;;;11.47;100.00;99672.38;6017741;23;20008;-49
2022/11/16 03:21:32;;;;;;;;;;;;;;;11.46;100.00;99657.94;6018715;23;19917;-50
2022/11/16 03:24:01;;;;;;;;;;;;;;;11.46;100.00;99657.94;6034871;23;19974;-54
2022/11/16 03:26:32;;;;;;;;;;;;;;;11.47;100.00;99656.84;6038663;23;19918;-51
2022/11/16 03:29:00;;;;;;;;;;;;;;;11.47;100.00;99659.56;6015415;23;19918;-47
2022/11/16 03:31:30;;;;;;;;;;;;;;;11.48;100.00;99649.47;6015676;23;19918;-52
2022/11/16 03:33:59;;;;;;;;;;;;;;;11.48;100.00;99658.44;6015802;23;19933;-50
2022/11/16 03:36:29;;;;;;;;;;;;;;;11.49;100.00;99660.06;6015403;23;19928;-51
2022/11/16 03:38:59;;;;;;;;;;;;;;;11.48;100.00;99654.91;6038624;23;19928;-49
2022/11/16 03:41:27;;;;;;;;;;;;;;;11.48;100.00;99661.19;6015038;23;19989;-52
2022/11/16 03:43:55;;;;;;;;;;;;;;;11.49;100.00;99672.88;6015262;23;20247;-51
2022/11/16 03:46:23;;;;;;;;;;;;;;;11.47;100.00;99670.47;6015413;23;19928;-51
2022/11/16 03:48:54;;;;;;;;;;;;;;;11.48;100.00;99668.56;6038093;23;20298;-51
2022/11/16 03:51:24;;;;;;;;;;;;;;;11.49;100.00;99667.44;6038235;23;20284;-54
2022/11/16 03:53:53;;;;;;;;;;;;;;;11.48;100.00;99677.53;6015856;23;20324;-50
2022/11/16 03:56:21;;;;;;;;;;;;;;;11.47;100.00;99667.75;6038476;23;19953;-52
2022/11/16 03:58:49;;;;;;;;;;;;;;;11.46;100.00;99674.31;6014948;23;19922;-53
2022/11/16 04:01:17;;;;;;;;;;;;;;;11.44;100.00;99676.50;6014212;23;20392;-51
2022/11/16 04:03:47;;;;;;;;;;;;;;;11.45;100.00;99686.34;6038709;23;19925;-52
2022/11/16 04:25:50;;;;;;;;;;;;;;;11.43;100.00;99698.66;6014693;23;20343;-52
2022/11/16 04:28:21;;;;;;;;;;;;;;;11.40;100.00;99697.34;6014534;23;19969;-49
2022/11/16 04:39:37;;;;;;;;;;;;;;;11.36;100.00;99704.50;6014761;23;19945;-49
2022/11/16 04:42:13;;;;;;;;;;;;;;;11.35;100.00;99705.59;6013878;23;20232;-50
2022/11/16 04:47:34;;;;;;;;;;;;;;;11.33;100.00;99718.75;6014671;23;19925;-52
2022/11/16 04:50:02;;;;;;;;;;;;;;;11.32;100.00;99722.56;6040208;23;19918;-50
2022/11/16 04:52:30;;;;;;;;;;;;;;;11.32;100.00;99722.56;5991410;23;19918;-50
2022/11/16 04:54:57;;;;;;;;;;;;;;;11.32;100.00;99727.22;6014270;23;19928;-51
2022/11/16 04:57:25;;;;;;;;;;;;;;;11.32;100.00;99732.66;6039860;23;19917;-51
2022/11/16 04:59:54;;;;;;;;;;;;;;;11.30;100.00;99736.50;6015069;23;20288;-51
2022/11/16 05:02:22;;;;;;;;;;;;;;;11.32;100.00;99738.94;6012668;23;19926;-52
2022/11/16 05:04:53;;;;;;;;;;;;;;;11.29;100.00;99739.53;6014733;23;20324;-51
2022/11/16 05:07:22;;;;;;;;;;;;;;;11.29;100.00;99739.53;6014357;23;19917;-52
2022/11/16 05:09:52;;;;;;;;;;;;;;;11.27;100.00;99749.94;6014758;23;19918;-52
2022/11/16 05:12:21;;;;;;;;;;;;;;;11.26;100.00;99746.41;6014501;23;19960;-51
2022/11/16 05:14:54;;;;;;;;;;;;;;;11.27;100.00;99753.44;6015034;23;20319;-49
2022/11/16 05:17:24;;;;;;;;;;;;;;;11.28;100.00;99751.53;6016811;23;20298;-49
2022/11/16 05:22:53;;;;;;;;;;;;;;;11.28;100.00;99755.09;6016319;23;19984;-49
2022/11/16 05:25:22;;;;;;;;;;;;;;;11.27;100.00;99764.38;6016398;23;20009;-50
2022/11/16 05:27:50;;;;;;;;;;;;;;;11.23;100.00;99752.44;6039664;23;20001;-50
2022/11/16 05:30:17;;;;;;;;;;;;;;;11.24;100.00;99759.50;6041477;23;19945;-54
2022/11/16 05:32:45;;;;;;;;;;;;;;;11.24;100.00;99753.25;6016367;23;19918;-51
2022/11/16 05:35:14;;;;;;;;;;;;;;;11.20;100.00;99747.56;6016093;23;20263;-50
2022/11/16 05:37:42;;;;;;;;;;;;;;;11.21;100.00;99748.41;5992352;23;19934;-49
2022/11/16 05:40:10;;;;;;;;;;;;;;;11.21;100.00;99756.59;6040001;23;19918;-51
2022/11/16 05:42:50;;;;;;;;;;;;;;;11.21;100.00;99756.59;6039902;23;19928;-50
2022/11/16 05:45:19;;;;;;;;;;;;;;;11.20;100.00;99760.41;6039861;23;19918;-51
2022/11/16 05:47:48;;;;;;;;;;;;;;;11.18;100.00;99760.69;6039079;23;19918;-52
2022/11/16 05:50:16;;;;;;;;;;;;;;;11.17;100.00;99756.34;6040079;23;20328;-54
2022/11/16 05:52:58;;;;;;;;;;;;;;;11.17;100.00;99758.28;6018854;23;20356;-51
2022/11/16 05:55:25;;;;;;;;;;;;;;;11.14;100.00;99754.25;6040796;23;20000;-53
2022/11/16 05:57:53;;;;;;;;;;;;;;;11.12;100.00;99745.53;6039233;23;19974;-51
2022/11/16 06:00:21;;;;;;;;;;;;;;;11.12;100.00;99744.75;6039787;23;19970;-53
2022/11/16 06:02:51;;;;;;;;;;;;;;;11.12;100.00;99740.09;6039927;23;20383;-54
2022/11/16 06:05:27;;;;;;;;;;;;;;;11.11;100.00;99754.00;6018046;23;19921;-52
2022/11/16 06:07:56;;;;;;;;;;;;;;;11.06;100.00;99758.47;6039137;23;19942;-55
2022/11/16 06:10:24;;;;;;;;;;;;;;;11.04;100.00;99749.75;6039451;23;20332;-52
2022/11/16 06:12:52;;;;;;;;;;;;;;;11.04;100.00;99757.94;6039369;23;19918;-50
2022/11/16 06:15:20;;;;;;;;;;;;;;;11.04;100.00;99765.28;6015504;23;19957;-50
2022/11/16 06:17:48;;;;;;;;;;;;;;;11.03;100.00;99772.66;6039047;23;19922;-51
2022/11/16 06:20:16;;;;;;;;;;;;;;;11.02;100.00;99773.78;6038629;23;19917;-52
2022/11/16 06:22:44;;;;;;;;;;;;;;;11.00;100.00;99775.19;6015534;23;20430;-51
2022/11/16 06:25:12;;;;;;;;;;;;;;;10.99;100.00;99785.28;6014963;23;20366;-53
2022/11/16 06:27:43;;;;;;;;;;;;;;;10.96;100.00;99779.59;6015073;23;19918;-52
2022/11/16 06:30:14;;;;;;;;;;;;;;;10.95;100.00;99780.72;6014807;23;20312;-55
2022/11/16 06:32:41;;;;;;;;;;;;;;;10.95;100.00;99781.53;6038209;23;19922;-55
2022/11/16 06:35:09;;;;;;;;;;;;;;;10.93;100.00;99783.72;6012450;23;19928;-53
2022/11/16 06:37:38;;;;;;;;;;;;;;;10.90;100.00;99786.25;6011929;23;20255;-53
2022/11/16 06:40:07;;;;;;;;;;;;;;;10.90;100.00;99797.16;5989197;23;19996;-53
2022/11/16 06:42:39;;;;;;;;;;;;;;;10.87;100.00;99798.53;6012064;23;19921;-51
2022/11/16 06:45:09;;;;;;;;;;;;;;;10.86;100.00;99797.72;6011151;23;19929;-54
2022/11/16 06:47:40;;;;;;;;;;;;;;;10.84;100.00;99801.84;6011443;23;19922;-52
2022/11/16 06:50:08;;;;;;;;;;;;;;;10.83;100.00;99808.41;6010959;23;19926;-52
2022/11/16 06:52:35;;;;;;;;;;;;;;;10.82;100.00;99812.22;6011934;23;20430;-52
2022/11/16 06:55:03;;;;;;;;;;;;;;;10.83;100.00;99820.13;5988552;23;19938;-52
2022/11/16 06:57:34;;;;;;;;;;;;;;;10.82;100.00;99809.50;6011509;23;20013;-56
2022/11/16 07:00:03;;;;;;;;;;;;;;;10.81;100.00;99816.88;6013664;23;19940;-52
2022/11/16 07:02:35;;;;;;;;;;;;;;;10.81;100.00;99824.25;6014259;23;19986;-50
2022/11/16 07:05:03;;;;;;;;;;;;;;;10.81;100.00;99833.22;6013157;23;19928;-51
2022/11/16 07:07:32;;;;;;;;;;;;;;;10.82;100.00;99829.41;5988474;23;20292;-54
2022/11/16 07:10:01;;;;;;;;;;;;;;;10.82;100.00;99826.69;5988174;23;20421;-54
2022/11/16 07:12:28;;;;;;;;;;;;;;;10.82;100.00;99832.13;5987896;23;19922;-52
2022/11/16 07:14:57;;;;;;;;;;;;;;;10.82;100.00;99828.56;6011215;23;19922;-51
2022/11/16 07:17:26;;;;;;;;;;;;;;;10.80;100.00;99834.34;6011432;23;20043;-55
2022/11/16 07:19:53;;;;;;;;;;;;;;;10.79;100.00;99834.63;6011502;23;20001;-51
2022/11/16 07:22:22;;;;;;;;;;;;;;;10.78;100.00;99833.00;6011183;23;19929;-52
2022/11/16 07:24:50;;;;;;;;;;;;;;;10.78;100.00;99830.28;6011146;23;19924;-49
2022/11/16 07:27:20;;;;;;;;;;;;;;;10.77;100.00;99834.91;5988121;23;19922;-52
2022/11/16 07:29:50;;;;;;;;;;;;;;;10.78;100.00;99833.81;6010774;23;19926;-54
2022/11/16 07:32:38;;;;;;;;;;;;;;;10.78;100.00;99833.00;5991620;23;19953;-53
2022/11/16 07:35:34;;;;;;;;;;;;;;;10.82;100.00;99842.19;5991383;23;19921;-52
2022/11/16 07:38:02;;;;;;;;;;;;;;;10.81;100.00;99848.75;6011304;23;19921;-51
2022/11/16 07:40:30;;;;;;;;;;;;;;;10.86;100.00;99854.13;6011006;23;20080;-52
2022/11/16 07:42:57;;;;;;;;;;;;;;;10.86;100.00;99857.66;6036289;23;20338;-53
2022/11/16 07:45:25;;;;;;;;;;;;;;;10.86;100.00;99851.41;6035399;23;19997;-54
2022/11/16 07:47:57;;;;;;;;;;;;;;;10.78;100.00;99858.34;6010547;23;19928;-51
2022/11/16 07:50:45;;;;;;;;;;;;;;;10.76;100.00;99863.25;6018279;23;20000;-51
2022/11/16 07:53:13;;;;;;;;;;;;;;;10.80;100.00;99858.88;6015296;23;19996;-51
2022/11/16 07:55:40;;;;;;;;;;;;;;;10.79;100.00;99859.94;6013848;23;20228;-50
2022/11/16 07:58:09;;;;;;;;;;;;;;;10.78;100.00;99865.72;6015342;23;20305;-50
2022/11/16 08:00:37;;;;;;;;;;;;;;;10.82;100.00;99867.56;6015120;23;19929;-52
2022/11/16 08:03:12;;;;;;;;;;;;;;;10.82;100.00;99866.72;6015038;23;20365;-51
2022/11/16 08:05:40;;;;;;;;;;;;;;;10.78;100.00;99876.59;6013950;23;19952;-54
2022/11/16 08:08:08;;;;;;;;;;;;;;;10.86;100.00;99876.75;6015477;23;19973;-53
2022/11/16 08:10:37;;;;;;;;;;;;;;;10.92;100.00;99877.50;6015027;23;19918;-53
2022/11/16 08:13:04;;;;;;;;;;;;;;;10.88;100.00;99871.81;6014890;23;19918;-49
2022/11/16 08:15:32;;;;;;;;;;;;;;;10.92;100.00;99882.97;6014527;23;19949;-52
2022/11/16 08:18:03;;;;;;;;;;;;;;;10.98;100.00;99880.97;5991577;23;19921;-48
2022/11/16 08:20:31;;;;;;;;;;;;;;;10.98;100.00;99884.50;5991386;23;19925;-52
2022/11/16 08:22:59;;;;;;;;;;;;;;;10.94;100.00;99879.91;6017028;23;20269;-54
2022/11/16 08:25:30;;;;;;;;;;;;;;;10.95;100.00;99887.81;6037347;23;19974;-50
2022/11/16 08:27:57;;;;;;;;;;;;;;;10.92;100.00;99893.84;6038535;23;20300;-52
2022/11/16 08:30:26;;;;;;;;;;;;;;;10.96;100.00;99889.41;6038646;23;20289;-50
2022/11/16 08:32:54;;;;;;;;;;;;;;;10.94;100.00;99886.19;6038591;23;19917;-49
2022/11/16 08:35:22;;;;;;;;;;;;;;;11.00;100.00;99890.47;6038575;23;19970;-52
2022/11/16 08:37:49;;;;;;;;;;;;;;;11.01;100.00;99886.63;6014852;23;19925;-52
2022/11/16 08:40:17;;;;;;;;;;;;;;;11.00;100.00;99887.75;6014846;23;19989;-51
2022/11/16 08:42:46;;;;;;;;;;;;;;;11.02;100.00;99885.53;6014186;23;19989;-50
2022/11/16 08:45:14;;;;;;;;;;;;;;;11.07;100.00;99890.91;6036741;23;20315;-51
2022/11/16 08:47:42;;;;;;;;;;;;;;;11.16;100.00;99887.50;6038019;23;20246;-49
2022/11/16 08:50:09;;;;;;;;;;;;;;;11.15;100.00;99894.09;6038731;23;20462;-51
2022/11/16 08:52:37;;;;;;;;;;;;;;;11.04;100.00;99893.41;6040059;23;19953;-54
2022/11/16 08:55:05;;;;;;;;;;;;;;;11.03;100.00;99900.78;6040198;23;19918;-50
2022/11/16 08:57:33;;;;;;;;;;;;;;;11.01;100.00;99905.72;6016530;23;19918;-51
2022/11/16 09:00:05;;;;;;;;;;;;;;;11.14;100.00;99908.84;6040401;23;19922;-51
2022/11/16 09:02:33;;;;;;;;;;;;;;;11.27;100.00;99908.09;6041619;23;19917;-53
2022/11/16 09:05:00;;;;;;;;;;;;;;;11.22;100.00;99906.25;6041214;23;19925;-53
2022/11/16 09:07:28;;;;;;;;;;;;;;;11.26;100.00;99909.19;6041433;23;19925;-53
2022/11/16 09:09:55;;;;;;;;;;;;;;;11.26;100.00;99915.47;6041418;23;19925;-54
2022/11/16 09:12:23;;;;;;;;;;;;;;;11.28;100.00;99913.25;6041681;23;19918;-51
2022/11/16 09:14:50;;;;;;;;;;;;;;;11.30;100.00;99912.94;6039598;23;19918;-49
2022/11/16 09:17:18;;;;;;;;;;;;;;;11.29;100.00;99919.50;6041757;23;19966;-50
2022/11/16 09:19:49;;;;;;;;;;;;;;;11.29;100.00;99911.31;6041303;23;20324;-51
2022/11/16 09:22:17;;;;;;;;;;;;;;;11.34;100.00;99921.34;6039932;23;19918;-55
2022/11/16 09:24:44;;;;;;;;;;;;;;;11.32;100.00;99918.91;6040972;23;19918;-51
2022/11/16 09:27:12;;;;;;;;;;;;;;;11.30;100.00;99916.50;6041241;23;19940;-51
2022/11/16 09:29:39;;;;;;;;;;;;;;;11.25;100.00;99907.56;6040373;23;19921;-52
2022/11/16 09:32:07;;;;;;;;;;;;;;;11.33;100.00;99919.72;6039358;23;19925;-51
2022/11/16 09:34:35;;;;;;;;;;;;;;;11.43;100.00;99917.66;6040034;23;19917;-50
2022/11/16 09:37:02;;;;;;;;;;;;;;;11.35;100.00;99910.13;6039832;23;19993;-53
2022/11/16 09:39:31;;;;;;;;;;;;;;;11.32;100.00;99913.47;6040319;23;20306;-50
2022/11/16 09:42:09;;;;;;;;;;;;;;;11.28;100.00;99912.41;6016119;23;19929;-51
2022/11/16 09:44:36;;;;;;;;;;;;;;;11.33;100.00;99909.66;6041595;23;19924;-51
2022/11/16 09:47:05;;;;;;;;;;;;;;;11.31;100.00;99911.84;6040868;23;20331;-51
2022/11/16 09:49:34;;;;;;;;;;;;;;;11.44;100.00;99913.00;6015702;23;19973;-51
2022/11/16 09:52:03;;;;;;;;;;;;;;;11.29;100.00;99919.50;6016082;23;19982;-48
2022/11/16 09:54:35;;;;;;;;;;;;;;;11.10;100.00;99922.22;6015496;23;19965;-52
2022/11/16 09:57:04;;;;;;;;;;;;;;;10.95;100.00;99931.41;6016422;23;19917;-51
2022/11/16 09:59:43;;;;;;;;;;;;;;;10.85;100.00;99934.28;6041420;23;19925;-51
2022/11/16 10:02:13;;;;;;;;;;;;;;;11.05;100.00;99923.09;6040844;23;19921;-52
2022/11/16 10:04:42;;;;;;;;;;;;;;;11.13;100.00;99927.09;6040629;23;19953;-50
2022/11/16 10:07:11;;;;;;;;;;;;;;;11.20;100.00;99921.28;6016142;23;20328;-51
2022/11/16 10:09:39;;;;;;;;;;;;;;;11.26;100.00;99925.56;6016058;23;19929;-51
2022/11/16 10:12:15;;;;;;;;;;;;;;;11.18;100.00;99924.28;6015948;23;19989;-50
2022/11/16 10:14:52;;;;;;;;;;;;;;;11.28;100.00;99928.78;6016272;23;19918;-52
2022/11/16 10:17:19;;;;;;;;;;;;;;;11.35;100.00;99933.88;6016097;23;19977;-53
2022/11/16 10:20:04;;;;;;;;;;;;;;;11.60;100.00;99930.78;6041046;23;19925;-51
2022/11/16 10:22:39;;;;;;;;;;;;;;;11.57;100.00;99927.81;6015734;23;19918;-51
2022/11/16 10:25:18;;;;;;;;;;;;;;;11.52;100.00;99924.06;6014838;23;19922;-53
2022/11/16 10:27:48;;;;;;;;;;;;;;;11.43;100.00;99920.38;6014396;23;20390;-52
2022/11/16 10:30:17;;;;;;;;;;;;;;;11.22;100.00;99919.88;6038946;23;19922;-49
2022/11/16 10:33:04;;;;;;;;;;;;;;;11.16;100.00;99920.22;6014303;23;19925;-51
2022/11/16 10:35:41;;;;;;;;;;;;;;;11.17;100.00;99921.88;6016878;23;19918;-50
2022/11/16 10:38:16;;;;;;;;;;;;;;;11.09;100.00;99924.16;6016957;23;19922;-53
2022/11/16 10:40:45;;;;;;;;;;;;;;;11.02;100.00;99929.16;6037390;23;19928;-48
2022/11/16 10:43:16;;;;;;;;;;;;;;;11.05;100.00;99919.56;6039419;23;19944;-53
2022/11/16 10:45:59;;;;;;;;;;;;;;;11.02;100.00;99922.91;6039749;23;20395;-52
2022/11/16 10:48:27;;;;;;;;;;;;;;;11.01;100.00;99921.25;6015740;23;20358;-51
2022/11/16 10:50:54;;;;;;;;;;;;;;;11.01;100.00;99923.97;6040868;23;19965;-54
2022/11/16 10:53:32;;;;;;;;;;;;;;;10.99;100.00;99918.84;6015684;23;19918;-53
2022/11/16 10:56:19;;;;;;;;;;;;;;;10.98;100.00;99913.66;6015453;23;19952;-51
2022/11/16 10:58:48;;;;;;;;;;;;;;;11.06;100.00;99916.56;6039753;23;19965;-51
2022/11/16 11:01:39;;;;;;;;;;;;;;;11.16;100.00;99922.97;6039783;23;19918;-54
2022/11/16 11:04:25;;;;;;;;;;;;;;;11.15;100.00;99913.16;6003017;23;20232;-53
2022/11/16 11:07:11;;;;;;;;;;;;;;;11.14;100.00;99906.91;6040887;23;20339;-51
2022/11/16 11:09:41;;;;;;;;;;;;;;;11.13;100.00;99907.19;6015753;23;20339;-51
2022/11/16 11:15:10;;;;;;;;;;;;;;;11.21;100.00;99912.00;6040845;23;20305;-51
2022/11/16 11:17:39;;;;;;;;;;;;;;;11.33;100.00;99909.66;6015209;23;19918;-49
2022/11/16 11:20:11;;;;;;;;;;;;;;;11.42;100.00;99916.03;6040388;23;19946;-54
2022/11/16 11:22:44;;;;;;;;;;;;;;;11.52;100.00;99910.44;6015276;23;19924;-51
2022/11/16 11:25:31;;;;;;;;;;;;;;;11.45;100.00;99901.81;6040152;23;19973;-52
2022/11/16 11:28:19;;;;;;;;;;;;;;;11.47;100.00;99904.22;6040006;23;19965;-54
2022/11/16 11:31:01;;;;;;;;;;;;;;;11.61;100.00;99898.84;6015350;23;19974;-52
2022/11/16 11:33:33;;;;;;;;;;;;;;;11.51;100.00;99911.53;6040465;23;20346;-51
2022/11/16 11:36:09;;;;;;;;;;;;;;;11.38;100.00;99906.84;6040116;23;19966;-50
2022/11/16 11:38:53;;;;;;;;;;;;;;;11.32;100.00;99891.66;6014266;23;19925;-54
2022/11/16 11:41:21;;;;;;;;;;;;;;;11.30;100.00;99893.84;6040121;23;19928;-52
2022/11/16 11:44:02;;;;;;;;;;;;;;;11.38;100.00;99890.47;6015370;23;19922;-51
2022/11/16 11:46:31;;;;;;;;;;;;;;;11.89;100.00;99886.94;6040028;23;19970;-52
2022/11/16 11:49:20;;;;;;;;;;;;;;;12.16;100.00;99882.63;6019733;23;19940;-51
2022/11/16 11:51:47;;;;;;;;;;;;;;;12.33;100.00;99877.38;6015523;23;19921;-52
2022/11/16 11:54:15;;;;;;;;;;;;;;;12.18;100.00;99874.16;6040337;23;19918;-50
2022/11/16 11:56:43;;;;;;;;;;;;;;;12.01;100.00;99885.66;6015261;23;19970;-52
2022/11/16 11:59:12;;;;;;;;;;;;;;;12.01;100.00;99875.53;6040034;23;19925;-52
2022/11/16 12:01:47;;;;;;;;;;;;;;;11.84;100.00;99876.06;5991510;23;19923;-50
2022/11/16 12:04:29;;;;;;;;;;;;;;;11.97;100.00;99879.16;6040069;23;19969;-53
2022/11/16 12:07:00;;;;;;;;;;;;;;;11.90;100.00;99880.34;6040073;23;20332;-51
2022/11/16 12:09:34;;;;;;;;;;;;;;;11.87;100.00;99875.50;6015425;23;19966;-52
2022/11/16 12:12:01;;;;;;;;;;;;;;;11.78;100.00;99881.91;6014718;23;19922;-51
2022/11/16 12:14:34;;;;;;;;;;;;;;;11.79;100.00;99867.97;6014732;23;19918;-51
2022/11/16 12:17:14;;;;;;;;;;;;;;;11.94;100.00;99867.72;6014808;23;19918;-50
2022/11/16 12:19:55;;;;;;;;;;;;;;;12.02;100.00;99865.41;6039933;23;19966;-50
2022/11/16 12:22:41;;;;;;;;;;;;;;;12.08;100.00;99853.31;6039970;23;19922;-53
2022/11/16 12:25:23;;;;;;;;;;;;;;;12.08;100.00;99850.56;6040054;23;19918;-53
2022/11/16 12:28:02;;;;;;;;;;;;;;;11.98;100.00;99848.00;6039961;23;19940;-54
2022/11/16 12:30:31;;;;;;;;;;;;;;;11.92;100.00;99839.91;6040088;23;19965;-52
2022/11/16 12:33:17;;;;;;;;;;;;;;;11.72;100.00;99846.53;6040037;23;19925;-52
2022/11/16 12:35:51;;;;;;;;;;;;;;;11.65;100.00;99839.84;6014668;23;19917;-53
2022/11/16 12:38:41;;;;;;;;;;;;;;;11.62;100.00;99835.00;6015144;23;20258;-52
2022/11/16 12:41:30;;;;;;;;;;;;;;;11.60;100.00;99838.00;6021805;23;20040;-52
2022/11/16 12:44:02;;;;;;;;;;;;;;;11.61;100.00;99838.81;6039769;23;19966;-52
2022/11/16 12:46:48;;;;;;;;;;;;;;;11.69;100.00;99829.97;6014758;23;19940;-53
2022/11/16 12:49:17;;;;;;;;;;;;;;;11.64;100.00;99827.28;6014854;23;19918;-54
2022/11/16 12:51:49;;;;;;;;;;;;;;;11.60;99.64;99818.09;6039721;23;19965;-50
2022/11/16 12:54:22;;;;;;;;;;;;;;;11.59;100.00;99816.47;6015159;23;20283;-54
2022/11/16 12:57:05;;;;;;;;;;;;;;;11.62;100.00;99813.16;6039642;23;20303;-53
2022/11/16 12:59:38;;;;;;;;;;;;;;;11.66;100.00;99811.44;6040051;23;19924;-52
2022/11/16 13:02:05;;;;;;;;;;;;;;;11.68;100.00;99801.03;6039149;23;19966;-54
2022/11/16 13:04:39;;;;;;;;;;;;;;;11.67;100.00;99808.41;6039569;23;19925;-52
2022/11/16 13:07:10;;;;;;;;;;;;;;;11.68;100.00;99792.84;6039889;23;19974;-53
2022/11/16 13:09:45;;;;;;;;;;;;;;;11.69;100.00;99797.22;6014742;23;19925;-54
2022/11/16 13:12:14;;;;;;;;;;;;;;;11.66;100.00;99797.78;6039658;23;19921;-56
2022/11/16 13:14:48;;;;;;;;;;;;;;;11.70;100.00;99799.63;6039609;23;19951;-53
2022/11/16 13:17:26;;;;;;;;;;;;;;;11.68;100.00;99796.38;6039644;23;19918;-53
2022/11/16 13:20:12;;;;;;;;;;;;;;;11.69;100.00;99787.09;6014665;23;19918;-54
2022/11/16 13:22:45;;;;;;;;;;;;;;;11.67;100.00;99794.78;6039218;23;19922;-54
2022/11/16 13:25:16;;;;;;;;;;;;;;;11.67;100.00;99804.88;6015084;23;19970;-51
2022/11/16 13:27:48;;;;;;;;;;;;;;;11.67;100.00;99793.97;6039140;23;19918;-52
2022/11/16 13:30:15;;;;;;;;;;;;;;;11.77;100.00;99799.25;6014942;23;20343;-53
2022/11/16 13:32:49;;;;;;;;;;;;;;;11.79;100.00;99794.28;6040123;23;19918;-53
2022/11/16 13:35:17;;;;;;;;;;;;;;;11.75;100.00;99796.00;6014382;23;19925;-53
2022/11/16 13:37:45;;;;;;;;;;;;;;;11.71;100.00;99794.97;6016244;23;19918;-51
2022/11/16 13:40:20;;;;;;;;;;;;;;;11.69;100.00;99786.31;6041403;23;19930;-51